Kezdőlap
METAR-TAF:

METAR-TAF

Repülőterek :

Donegal, Írország

földrajzi szélesség: 55-02-39N, földrajzi hosszúság: 8-20-28W, magasság: 9 m

Jelenlegi meteorológiai megfigyelések

A jelentés 23 perccel ezelõtt készült, 17:30 UTC
Északi szél 8 kt
Hőmérséklet 11°C
Páratartalom 66%
Légköri nyomás 1025 hPa
Látótávolság 10 km, vagy több
Kevés felhő 4400 lábon

METAR: EIDL 191730Z 01008KT 9999 FEW044 11/05 Q1025

Idő: 18:53 (17:53 UTC)

Előrejelzés

A jelentés 53 perccel ezelõtt készült, 17:00 UTC
Az előrejelzés 19-én 18 óra UTC és 20-én 03 óra UTC között érvényes
Északi szél 10 kt
Látótávolság 10 km, vagy több
Szórványos felhőzet 4000 lábon
19-én 18 óra UTC és 19-én 20 óra UTC között fokozatosan kialakuló
Különbözõ irányokból fújó szél 3 kt

TAF: EIDL 191700Z 1918/2003 35010KT 9999 SCT040 BECMG 1918/1920 VRB03KT

Meteorológiai megfigyelések és előrejelzések több, mint 4000 repülőtéren (METAR és TAF jelentéseket).

A térképen piros és sárga pontok jelzik az elérhető meteorológiai állomásokat.

Mozgassa az egeret a pont fölött, hogy megjelenjen az állomás neve.

Azután kattintson az időjárási megfigyelések és előrejelzések megtekintéséhez.

A térkép megváltoztatása: kattintson a fekete keresztel jelölt zöld gombra ráközelítéshez, a vonallal jelölt zöld gombra távolításhoz, vagy a zöld nyilakra a szomszédos térképek eléréséhez.


METAR-TAF: